Flight Track Log - Related Links

Times and Time Zones

All times are in EDT time to prevent confusion due to time zone crossing. See the BJS542 flight status page for this flight to view local times or setup timezone preferences in your user account.

Time Position Orientation Groundspeed Altitude Reporting Facility
EDT Latitude Longitude Course Direction KTS MPH feet Rate Location/Type
Mon 03:15:29 PM 44.3808 -68.4806 252° West 219 252 7,000  Level Boston Center
Mon 03:16:30 PM 44.3533 -68.5897 251° West 248 285 10,000 2,033 Climbing Boston Center
Mon 03:17:30 PM 44.3214 -68.7022 248° West 288 331 11,100 2,339 Climbing Boston Center
Mon 03:18:28 PM 44.2878 -68.8203 248° West 313 360 14,600 3,681 Climbing Boston Center
Mon 03:19:29 PM 44.2519 -68.9472 249° West 330 380 18,400 3,836 Climbing Boston Center
Mon 03:20:00 PM 44.2407 -69.0683 252° West  Level FlightAware Approximate
Mon 03:20:30 PM 44.2161 -69.0681 248° West 343 395 22,400  Level Boston Center
Mon 03:22:30 PM 44.1439 -69.3153 248° West 433 498 28,500 2,867 Climbing Boston Center
Mon 03:23:30 PM 44.1078 -69.4472 249° West 394 453 31,000 2,500 Climbing Boston Center
Mon 03:24:30 PM 44.0694 -69.5792 248° West 377 434 33,500 2,288 Climbing Boston Center
Mon 03:25:28 PM 44.0386 -69.6847 248° West 377 434 35,500 1,878 Climbing Boston Center
Mon 03:26:41 PM 43.9944 -69.8456 249° West 377 434 37,600 1,119 Climbing Boston Center
Mon 03:27:42 PM 43.9458 -70.0064 247° West 377 434 38,000 198 Climbing Boston Center
Mon 03:28:42 PM 43.9150 -70.1286 251° West 377 434 38,000  Level Boston Center
Mon 03:29:43 PM 43.8697 -70.2600 244° Southwest 377 434 38,000  Level Boston Center
Mon 03:30:40 PM 43.8306 -70.3939 248° West 377 434 38,000  Level Boston Center
Mon 03:31:41 PM 43.7911 -70.5275 248° West 377 434 38,000  Level Boston Center
Mon 03:32:42 PM 43.7517 -70.6608 248° West 377 434 38,000  Level Boston Center
Mon 03:33:40 PM 43.7119 -70.7914 247° West 377 434 38,000  Level Boston Center
Mon 03:34:41 PM 43.6700 -70.9244 246° West 377 434 38,000  Level Boston Center
Mon 03:35:41 PM 43.6361 -71.0544 250° West 377 434 38,000  Level Boston Center
Mon 03:36:42 PM 43.5900 -71.2017 247° West 377 434 38,000  Level Boston Center
Mon 03:37:40 PM 43.5456 -71.3372 246° West 384 442 38,000  Level Boston Center
Mon 03:38:40 PM 43.5050 -71.4725 248° West 384 442 38,000  Level Boston Center
Mon 03:39:41 PM 43.4622 -71.6078 246° West 384 442 38,000  Level Boston Center
Mon 03:40:41 PM 43.4214 -71.7397 247° West 384 442 38,000  Level Boston Center
Mon 03:41:41 PM 43.3786 -71.8775 247° West 384 442 38,000  Level Boston Center
Mon 03:42:42 PM 43.3394 -72.0092 248° West 384 442 38,000 -443 Level Boston Center
Mon 03:43:43 PM 43.2961 -72.1406 246° West 384 442 37,100 -1,475 Descending Boston Center
Mon 03:44:40 PM 43.2547 -72.2747 247° West 384 442 35,100 -2,136 Descending Boston Center
Mon 03:45:41 PM 43.2172 -72.4058 249° West 379 436 32,900 -2,508 Descending Boston Center
Mon 03:46:42 PM 43.2194 -72.5511 271° West 367 422 30,000 -2,579 Descending Boston Center
Mon 03:47:42 PM 43.2233 -72.6964 272° West 379 436 27,700 -1,831 Descending Boston Center
Mon 03:48:40 PM 43.2311 -72.8392 274° West 379 436 26,400 -1,412 Descending Boston Center
Mon 03:49:41 PM 43.2347 -72.9872 272° West 385 443 24,900 -1,190 Descending Boston Center
Mon 03:50:41 PM 43.1861 -73.1122 242° Southwest 363 418 24,000 -793 Descending Boston Center
Mon 03:51:42 PM 43.1125 -73.2278 229° Southwest 385 443 23,300 -1,059 Descending Boston Center
Mon 03:52:40 PM 43.0389 -73.3378 228° Southwest 395 455 21,900 -1,563 Descending Boston Center
Mon 03:53:41 PM 42.9669 -73.4472 228° Southwest 395 455 20,200 -1,525 Descending Boston Center
Mon 03:54:42 PM 42.9014 -73.5539 230° Southwest 395 455 18,800 -1,339 Descending Boston Center
Mon 03:55:42 PM 42.8150 -73.6372 215° Southwest 378 435 17,500 -1,477 Descending Boston Center
Mon 03:56:52 PM 42.6981 -73.6606 188° South 378 435 15,600 -1,603 Descending Boston Center
Mon 03:57:53 PM 42.5833 -73.6808 187° South 389 448 14,000 -1,488 Descending Boston Center
Mon 03:58:53 PM 42.4956 -73.6989 189° South 375 432 12,600 -984 Descending Boston Center
Mon 03:59:55 PM 42.3933 -73.7164 187° South 351 404 12,000 -353 Descending Boston Center
Mon 04:00:52 PM 42.3033 -73.7314 187° South 357 411 11,900  Descending Boston Center
Mon 04:01:53 PM 42.1947 -73.7489 187° South 357 411 12,000 50 Climbing Boston Center
Mon 04:02:53 PM 42.1072 -73.7667 189° South 357 411 12,000 -50 Level Boston Center
Mon 04:03:54 PM 42.0006 -73.7839 187° South 352 405 11,900  Descending Boston Center
Mon 04:04:54 PM 41.9297 -73.7964 187° South 321 369 12,000 -50 Climbing Boston Center
Mon 04:05:55 PM 41.8419 -73.8111 187° South 296 341 11,800 -508 Descending Boston Center
Mon 04:06:52 PM 41.7747 -73.8431 200° South 283 326 11,000 -1,322 Descending Boston Center
Mon 04:07:53 PM 41.7133 -73.9167 222° Southwest 269 310 9,200 -1,770 Descending Boston Center
Mon 04:08:54 PM 41.6486 -73.9264 186° South 257 296 7,400 -1,613 Descending Boston Center
Mon 04:09:52 PM 41.5633 -73.9161 175° South 274 315 6,000 -781 Descending Boston Center
Mon 04:11:43 PM 41.4167 -73.9000 175° South 272 313 5,200 -947 Descending New York TRACON
Mon 04:12:43 PM 41.3500 -73.8833 169° South 268 308 3,300 -1,050 Descending New York TRACON
Mon 04:13:43 PM 41.2833 -73.8667 169° South 264 304 3,100 -550 Descending New York TRACON
Mon 04:14:43 PM 41.2167 -73.8167 151° Southeast 233 268 2,200 -500 Descending New York TRACON
Mon 04:15:43 PM 41.1667 -73.7833 153° Southeast 167 192 2,100 -200 Descending New York TRACON
Mon 04:16:43 PM 41.1333 -73.7667 159° South 156 180 1,800 -500 Descending New York TRACON
Mon 04:17:43 PM 41.1000 -73.7333 143° Southeast 133 153 1,100 -700 Descending New York TRACON
Mon 04:19:00 PM 41.0669 -73.7076 252° West  Level Estimated
Mon 04:26:00 PM 41.0667 -73.7000 252° West  Level FlightAware Approximate

Login

Don't have an account? Register now (free) for customized features, flight alerts, and more!